createdAt,value
2022-10-04T00:01:50.645Z,9.46
2022-10-04T00:04:23.614Z,9.51
2022-10-04T00:06:58.390Z,9.52
2022-10-04T00:09:32.144Z,9.58
2022-10-04T00:12:01.835Z,9.52
2022-10-04T00:14:34.224Z,9.54
2022-10-04T00:17:10.490Z,9.50
2022-10-04T00:19:42.649Z,9.40
2022-10-04T00:22:19.144Z,9.19
2022-10-04T00:25:18.015Z,9.43
2022-10-04T00:28:28.852Z,9.54
2022-10-04T00:31:18.775Z,9.50
2022-10-04T00:33:49.263Z,9.53
2022-10-04T00:36:40.324Z,9.49
2022-10-04T00:39:44.901Z,9.54
2022-10-04T00:42:29.688Z,9.57
2022-10-04T00:45:00.444Z,9.51
2022-10-04T00:47:33.128Z,9.58
2022-10-04T00:50:08.784Z,9.59
2022-10-04T00:52:38.722Z,9.42
2022-10-04T00:55:09.630Z,9.51
2022-10-04T00:57:41.725Z,9.49
2022-10-04T01:00:14.153Z,9.63
2022-10-04T01:02:54.120Z,9.54
2022-10-04T01:05:26.594Z,9.61
2022-10-04T01:07:58.881Z,9.54
2022-10-04T01:10:30.359Z,9.26
2022-10-04T01:13:02.846Z,9.14
2022-10-04T01:15:35.974Z,9.09
2022-10-04T01:18:11.383Z,9.36
2022-10-04T01:20:41.802Z,9.15
2022-10-04T01:23:12.076Z,9.06
2022-10-04T01:25:51.127Z,9.04
2022-10-04T01:28:19.963Z,9.06
2022-10-04T01:30:49.174Z,8.92
2022-10-04T01:33:17.940Z,8.75
2022-10-04T01:35:46.767Z,8.69
2022-10-04T01:38:17.423Z,8.85
2022-10-04T01:40:48.575Z,8.72
2022-10-04T01:43:21.802Z,8.64
2022-10-04T01:45:54.638Z,8.62
2022-10-04T01:48:25.500Z,8.62
2022-10-04T01:50:59.317Z,8.68
2022-10-04T01:53:31.287Z,8.71
2022-10-04T01:56:06.728Z,8.70
2022-10-04T01:58:42.680Z,8.62
2022-10-04T02:01:13.302Z,8.66
2022-10-04T02:03:44.773Z,8.63
2022-10-04T02:06:18.260Z,8.25
2022-10-04T02:08:51.047Z,8.19
2022-10-04T02:11:23.487Z,8.31
2022-10-04T02:13:53.392Z,8.15
2022-10-04T02:16:23.240Z,8.13
2022-10-04T02:18:53.184Z,8.16
2022-10-04T02:21:22.707Z,8.23
2022-10-04T02:23:54.575Z,8.27
2022-10-04T02:26:23.345Z,8.29
2022-10-04T02:28:52.574Z,8.12
2022-10-04T02:31:42.910Z,8.55
2022-10-04T02:34:11.450Z,8.54
2022-10-04T02:36:40.938Z,8.59
2022-10-04T02:39:14.457Z,8.65
2022-10-04T02:41:45.602Z,8.62
2022-10-04T02:44:17.259Z,8.72
2022-10-04T02:46:50.528Z,8.53
2022-10-04T02:49:24.126Z,8.36
2022-10-04T02:51:55.476Z,8.56
2022-10-04T02:54:29.969Z,8.54
2022-10-04T02:56:59.276Z,8.52
2022-10-04T02:59:28.062Z,8.56
2022-10-04T03:01:58.674Z,8.61
2022-10-04T03:04:29.500Z,8.66
2022-10-04T03:06:59.576Z,8.60
2022-10-04T03:09:30.301Z,8.58
2022-10-04T03:11:59.185Z,8.59
2022-10-04T03:14:29.799Z,8.59
2022-10-04T03:17:00.794Z,8.63
2022-10-04T03:19:31.180Z,8.58
2022-10-04T03:22:02.788Z,8.40
2022-10-04T03:24:35.361Z,8.51
2022-10-04T03:27:07.090Z,8.51
2022-10-04T03:29:36.489Z,8.58
2022-10-04T03:32:06.164Z,8.46
2022-10-04T03:34:36.556Z,8.54
2022-10-04T03:37:08.837Z,8.62
2022-10-04T03:39:42.190Z,8.61
2022-10-04T03:42:14.133Z,8.62
2022-10-04T03:44:43.125Z,8.58
2022-10-04T03:47:12.677Z,8.78
2022-10-04T03:49:41.957Z,8.63
2022-10-04T03:52:19.065Z,8.69
2022-10-04T03:54:51.444Z,8.71
2022-10-04T03:57:20.632Z,8.72
2022-10-04T03:59:49.605Z,8.70
2022-10-04T04:02:23.720Z,8.68
2022-10-04T04:04:58.377Z,8.77
2022-10-04T04:07:30.702Z,8.74
2022-10-04T04:10:05.376Z,8.77
2022-10-04T04:12:39.236Z,8.71
2022-10-04T04:15:11.776Z,8.74
2022-10-04T04:17:42.262Z,8.92
2022-10-04T04:20:27.108Z,8.75
2022-10-04T04:23:02.207Z,8.83
2022-10-04T04:25:34.758Z,8.92
2022-10-04T04:28:09.120Z,8.89
2022-10-04T04:30:39.302Z,8.89
2022-10-04T04:33:11.839Z,8.85
2022-10-04T04:35:40.430Z,8.86
2022-10-04T04:38:19.220Z,8.59
2022-10-04T04:40:49.306Z,8.54
2022-10-04T04:43:20.048Z,8.52
2022-10-04T04:46:08.455Z,8.48
2022-10-04T04:48:39.291Z,8.49
2022-10-04T04:51:08.838Z,8.48
2022-10-04T04:53:37.649Z,8.49
2022-10-04T04:56:10.936Z,8.47
2022-10-04T04:58:43.520Z,8.46
2022-10-04T05:01:20.060Z,8.47
2022-10-04T05:04:02.279Z,8.47
2022-10-04T05:06:32.785Z,8.51
2022-10-04T05:09:02.015Z,8.52
2022-10-04T05:11:34.106Z,8.49
2022-10-04T05:14:06.932Z,8.52
2022-10-04T05:16:39.831Z,8.55
2022-10-04T05:19:13.434Z,8.54
2022-10-04T05:21:44.963Z,8.58
2022-10-04T05:24:16.137Z,8.64
2022-10-04T05:26:46.607Z,8.69
2022-10-04T05:29:19.032Z,8.73
2022-10-04T05:31:49.739Z,8.71
2022-10-04T05:34:24.774Z,8.72
2022-10-04T05:37:07.211Z,8.75
2022-10-04T05:39:41.941Z,8.78
2022-10-04T05:42:21.264Z,8.84
2022-10-04T05:44:53.035Z,8.86
2022-10-04T05:47:24.197Z,8.92
2022-10-04T05:49:54.495Z,8.93
2022-10-04T05:52:31.776Z,9.23
2022-10-04T05:55:19.300Z,8.96
2022-10-04T05:57:57.696Z,9.05
2022-10-04T06:00:36.322Z,9.31
2022-10-04T06:03:18.607Z,9.45
2022-10-04T06:05:51.831Z,9.55
2022-10-04T06:08:32.794Z,9.46
2022-10-04T06:11:08.866Z,9.46
2022-10-04T06:14:11.912Z,9.57
2022-10-04T06:16:53.903Z,9.68
2022-10-04T06:19:49.431Z,9.74
2022-10-04T06:22:19.039Z,9.72
2022-10-04T06:24:51.024Z,9.72
2022-10-04T06:27:25.374Z,9.86
2022-10-04T06:29:57.580Z,9.96
2022-10-04T06:33:02.782Z,9.87
2022-10-04T06:35:54.104Z,9.72
2022-10-04T06:38:55.556Z,10.08
2022-10-04T06:41:40.465Z,10.12
2022-10-04T06:44:20.570Z,10.07
2022-10-04T06:46:52.073Z,9.93
2022-10-04T06:49:40.975Z,10.06
2022-10-04T06:52:26.450Z,10.20
2022-10-04T06:55:28.584Z,10.55
2022-10-04T06:58:15.158Z,10.38
2022-10-04T07:00:49.153Z,10.32
2022-10-04T07:03:23.713Z,10.31
2022-10-04T07:05:54.812Z,10.25
2022-10-04T07:08:34.332Z,10.18
2022-10-04T07:11:11.577Z,10.14
2022-10-04T07:13:45.911Z,10.18
2022-10-04T07:16:27.149Z,10.48
2022-10-04T07:19:03.394Z,10.69
2022-10-04T07:21:39.106Z,11.04
2022-10-04T07:24:11.479Z,11.09
2022-10-04T07:26:45.777Z,11.01
2022-10-04T07:29:24.636Z,11.01
2022-10-04T07:32:05.699Z,10.96
2022-10-04T07:34:38.409Z,10.81
2022-10-04T07:37:10.686Z,10.78
2022-10-04T07:39:45.198Z,10.78
2022-10-04T07:42:20.947Z,10.74
2022-10-04T07:44:59.128Z,10.88
2022-10-04T07:47:29.583Z,10.98
2022-10-04T07:50:01.643Z,10.86
2022-10-04T07:52:49.667Z,10.88
2022-10-04T07:55:24.849Z,10.99
2022-10-04T07:58:11.031Z,10.92
2022-10-04T08:00:48.414Z,10.93
2022-10-04T08:03:28.244Z,10.93
2022-10-04T08:06:07.351Z,10.82
2022-10-04T08:08:47.037Z,10.89
2022-10-04T08:11:22.167Z,11.35
2022-10-04T08:13:54.906Z,11.25
2022-10-04T08:16:34.906Z,11.27
2022-10-04T08:19:17.265Z,11.24
2022-10-04T08:21:56.549Z,11.25
2022-10-04T08:24:29.326Z,11.16
2022-10-04T08:27:24.738Z,11.29
2022-10-04T08:30:02.362Z,11.24
2022-10-04T08:32:45.524Z,11.47
2022-10-04T08:35:29.561Z,11.70
2022-10-04T08:38:18.468Z,12.16
2022-10-04T08:41:17.158Z,12.43
2022-10-04T08:44:05.832Z,12.61
2022-10-04T08:46:59.497Z,12.34
2022-10-04T08:49:52.456Z,12.18
2022-10-04T08:52:47.132Z,12.10
2022-10-04T08:55:58.522Z,11.95
2022-10-04T08:58:42.172Z,12.11
2022-10-04T09:01:27.778Z,12.66
2022-10-04T09:04:40.366Z,12.92
2022-10-04T09:07:27.577Z,12.43
2022-10-04T09:10:15.912Z,12.35
2022-10-04T09:13:01.807Z,12.46
2022-10-04T09:15:53.084Z,12.83
2022-10-04T09:18:32.975Z,13.65
2022-10-04T09:21:09.697Z,16.28
2022-10-04T09:24:10.576Z,17.54
2022-10-04T09:26:46.906Z,17.64
2022-10-04T09:29:28.044Z,16.43
2022-10-04T09:32:12.524Z,15.41
2022-10-04T09:34:51.505Z,15.14
2022-10-04T09:37:38.457Z,16.52
2022-10-04T09:40:47.932Z,15.88
2022-10-04T09:43:30.778Z,14.85
2022-10-04T09:46:16.374Z,14.28
2022-10-04T09:48:54.614Z,14.03
2022-10-04T09:51:45.337Z,14.36
2022-10-04T09:54:30.788Z,13.71
2022-10-04T09:57:20.105Z,13.39
2022-10-04T10:00:10.524Z,13.37
2022-10-04T10:02:55.707Z,13.82
2022-10-04T10:05:31.443Z,13.90
2022-10-04T10:08:12.762Z,14.10
2022-10-04T10:11:05.919Z,14.20
2022-10-04T10:14:01.592Z,14.21
2022-10-04T10:16:42.542Z,14.15
2022-10-04T10:19:30.387Z,17.84
2022-10-04T10:22:15.518Z,20.90
2022-10-04T10:25:13.401Z,22.24
2022-10-04T10:28:08.009Z,19.99
2022-10-04T10:30:48.305Z,18.91
2022-10-04T10:33:24.324Z,17.18
2022-10-04T10:36:04.352Z,17.05
2022-10-04T10:38:43.918Z,16.90
2022-10-04T10:41:37.435Z,16.43
2022-10-04T10:44:23.513Z,16.78
2022-10-04T10:47:01.417Z,15.67
2022-10-04T10:49:46.018Z,14.67
2022-10-04T10:52:44.542Z,14.22
2022-10-04T10:55:50.472Z,14.02
2022-10-04T10:58:39.567Z,15.22
2022-10-04T11:01:21.795Z,16.10
2022-10-04T11:04:17.525Z,19.41
2022-10-04T11:07:18.586Z,21.38
2022-10-04T11:10:33.145Z,24.97
2022-10-04T11:13:27.748Z,24.74
2022-10-04T11:16:22.095Z,22.04
2022-10-04T11:19:40.641Z,20.17
2022-10-04T11:22:44.879Z,18.33
2022-10-04T11:25:37.349Z,16.82
2022-10-04T11:28:13.980Z,16.86
2022-10-04T11:31:17.572Z,19.87
2022-10-04T11:34:18.564Z,20.44
2022-10-04T11:36:58.134Z,17.37
2022-10-04T11:39:53.834Z,15.84
2022-10-04T11:42:34.082Z,15.33
2022-10-04T11:45:21.972Z,15.29
2022-10-04T11:48:01.689Z,18.19
2022-10-04T11:50:40.163Z,20.14
2022-10-04T11:53:40.537Z,18.10
2022-10-04T11:56:35.411Z,18.23
2022-10-04T11:59:18.462Z,20.41
2022-10-04T12:02:07.401Z,21.15
2022-10-04T12:05:07.747Z,18.41
2022-10-04T12:07:44.343Z,18.73
2022-10-04T12:10:31.419Z,21.45
2022-10-04T12:13:36.037Z,21.06
2022-10-04T12:16:38.465Z,18.82
2022-10-04T12:19:25.014Z,16.64
2022-10-04T12:22:00.825Z,15.41
2022-10-04T12:24:53.449Z,14.68
2022-10-04T12:27:42.203Z,14.29
2022-10-04T12:30:23.997Z,14.18
2022-10-04T12:33:02.636Z,13.99
2022-10-04T12:35:39.155Z,14.00
2022-10-04T12:38:21.343Z,13.95
2022-10-04T12:40:52.890Z,13.92
2022-10-04T12:43:28.226Z,13.47
2022-10-04T12:46:03.560Z,13.42
2022-10-04T12:48:54.228Z,13.24
2022-10-04T12:51:39.624Z,13.06
2022-10-04T12:54:38.166Z,13.45
2022-10-04T12:57:29.781Z,14.31
2022-10-04T13:00:06.710Z,14.09
2022-10-04T13:03:02.803Z,13.53
2022-10-04T13:05:36.467Z,13.50
2022-10-04T13:08:18.351Z,15.54
2022-10-04T13:10:59.366Z,16.60
2022-10-04T13:13:49.560Z,15.52
2022-10-04T13:19:19.497Z,15.70
2022-10-04T13:22:03.366Z,16.12
2022-10-04T13:24:55.278Z,16.62
2022-10-04T13:27:39.172Z,17.54
2022-10-04T13:30:14.794Z,18.63
2022-10-04T13:32:46.600Z,18.56
2022-10-04T13:35:20.941Z,18.36
2022-10-04T13:38:02.693Z,18.23
2022-10-04T13:40:42.844Z,17.85
2022-10-04T13:43:38.181Z,17.07
2022-10-04T13:46:22.220Z,16.88
2022-10-04T13:48:58.627Z,16.38
2022-10-04T13:51:36.288Z,16.38
2022-10-04T13:54:31.386Z,16.35
2022-10-04T13:57:12.880Z,15.70
2022-10-04T13:59:44.478Z,15.74
2022-10-04T14:02:46.304Z,16.15
2022-10-04T14:05:42.304Z,16.36
2022-10-04T14:08:53.874Z,16.96
2022-10-04T14:11:41.803Z,17.67
2022-10-04T14:14:40.428Z,16.94
2022-10-04T14:17:26.228Z,15.65
2022-10-04T14:20:24.344Z,15.08
2022-10-04T14:23:23.438Z,14.44
2022-10-04T14:26:32.718Z,13.90
2022-10-04T14:29:24.428Z,13.78
2022-10-04T14:32:22.869Z,13.71
2022-10-04T14:34:57.299Z,14.41
2022-10-04T14:38:07.821Z,14.33
2022-10-04T14:40:46.997Z,14.23
2022-10-04T14:43:50.386Z,14.41
2022-10-04T14:46:23.746Z,14.04
2022-10-04T14:49:04.643Z,13.71
2022-10-04T14:51:54.083Z,13.63
2022-10-04T14:54:35.326Z,13.35
2022-10-04T14:57:06.120Z,13.25
2022-10-04T14:59:54.849Z,13.15
2022-10-04T15:02:58.724Z,13.11
2022-10-04T15:06:06.890Z,13.02
2022-10-04T15:08:52.923Z,12.89
2022-10-04T15:11:36.216Z,12.81
2022-10-04T15:14:06.537Z,12.75
2022-10-04T15:16:38.883Z,12.63
2022-10-04T15:19:11.284Z,12.46
2022-10-04T15:21:45.355Z,12.32
2022-10-04T15:24:49.186Z,12.33
2022-10-04T15:27:44.505Z,12.28
2022-10-04T15:30:21.769Z,12.30
2022-10-04T15:32:59.360Z,12.26
2022-10-04T15:35:35.485Z,12.24
2022-10-04T15:38:15.232Z,12.25
2022-10-04T15:40:58.947Z,12.19
2022-10-04T15:43:32.645Z,12.06
2022-10-04T15:46:42.480Z,11.96
2022-10-04T15:49:29.722Z,11.84
2022-10-04T15:52:35.690Z,11.75
2022-10-04T15:55:28.490Z,11.64
2022-10-04T15:58:26.081Z,11.65
2022-10-04T16:01:05.486Z,11.54
2022-10-04T16:03:45.143Z,11.48
2022-10-04T16:06:21.719Z,11.48
2022-10-04T16:09:13.798Z,11.49
2022-10-04T16:12:05.731Z,11.47
2022-10-04T16:15:03.223Z,11.41
2022-10-04T16:18:00.082Z,11.35
2022-10-04T16:20:52.313Z,11.28
2022-10-04T16:23:32.743Z,11.19
2022-10-04T16:26:03.542Z,11.09
2022-10-04T16:28:44.962Z,11.00
2022-10-04T16:31:24.850Z,10.89
2022-10-04T16:33:59.461Z,10.81
2022-10-04T16:36:32.097Z,10.75
2022-10-04T16:39:20.126Z,10.72
2022-10-04T16:41:59.407Z,10.68
2022-10-04T16:44:35.738Z,10.63
2022-10-04T16:47:19.472Z,10.63
2022-10-04T16:49:51.544Z,10.57
2022-10-04T16:52:32.767Z,10.52
2022-10-04T16:55:25.099Z,10.47
2022-10-04T16:58:38.802Z,10.38
2022-10-04T17:01:39.688Z,10.33
2022-10-04T17:04:21.713Z,10.25
2022-10-04T17:06:52.991Z,10.14
2022-10-04T17:09:27.641Z,10.10
2022-10-04T17:12:09.607Z,10.05
2022-10-04T17:15:08.223Z,9.98
2022-10-04T17:17:46.228Z,9.92
2022-10-04T17:20:25.889Z,9.88
2022-10-04T17:23:04.745Z,9.81
2022-10-04T17:25:38.645Z,9.79
2022-10-04T17:28:19.748Z,9.74
2022-10-04T17:30:55.438Z,9.71
2022-10-04T17:33:35.243Z,9.72
2022-10-04T17:36:28.245Z,9.72
2022-10-04T17:39:04.307Z,9.77
2022-10-04T17:41:45.443Z,9.77
2022-10-04T17:44:34.113Z,9.74
2022-10-04T17:47:11.913Z,9.68
2022-10-04T17:50:02.572Z,9.65
2022-10-04T17:52:53.535Z,9.63
2022-10-04T17:55:28.621Z,9.59
2022-10-04T17:58:01.217Z,9.48
2022-10-04T18:00:54.819Z,9.39
2022-10-04T18:03:26.666Z,9.37
2022-10-04T18:05:59.302Z,9.36
2022-10-04T18:08:42.591Z,9.34
2022-10-04T18:11:19.737Z,9.31
2022-10-04T18:13:51.966Z,9.30
2022-10-04T18:16:25.449Z,9.26
2022-10-04T18:18:54.265Z,9.25
2022-10-04T18:21:26.425Z,9.19
2022-10-04T18:23:58.833Z,9.16
2022-10-04T18:26:30.260Z,9.11
2022-10-04T18:29:00.928Z,9.09
2022-10-04T18:31:38.512Z,9.06
2022-10-04T18:34:28.307Z,9.03
2022-10-04T18:37:06.940Z,9.03
2022-10-04T18:39:51.900Z,9.01
2022-10-04T18:42:27.384Z,9.00
2022-10-04T18:44:59.739Z,8.95
2022-10-04T18:47:34.769Z,8.93
2022-10-04T18:50:16.592Z,8.89
2022-10-04T18:52:53.014Z,8.85
2022-10-04T18:55:34.945Z,8.86
2022-10-04T18:58:28.517Z,8.81
2022-10-04T19:01:25.813Z,8.78
2022-10-04T19:04:00.531Z,8.77
2022-10-04T19:06:31.693Z,8.77
2022-10-04T19:09:05.375Z,8.76
2022-10-04T19:11:40.074Z,8.74
2022-10-04T19:14:18.952Z,8.70
2022-10-04T19:16:54.913Z,8.66
2022-10-04T19:19:39.055Z,8.59
2022-10-04T19:22:17.643Z,8.55
2022-10-04T19:24:56.448Z,8.53
2022-10-04T19:27:31.911Z,8.48
2022-10-04T19:30:11.811Z,8.46
2022-10-04T19:32:51.230Z,8.43
2022-10-04T19:35:30.308Z,8.44
2022-10-04T19:38:05.082Z,8.42
2022-10-04T19:40:40.807Z,8.40
2022-10-04T19:43:15.614Z,8.38
2022-10-04T19:45:50.748Z,8.35
2022-10-04T19:48:24.448Z,8.35
2022-10-04T19:50:56.657Z,8.31
2022-10-04T19:53:28.176Z,8.28
2022-10-04T19:55:58.144Z,8.31
2022-10-04T19:58:36.798Z,8.32
2022-10-04T20:01:12.061Z,8.31
2022-10-04T20:03:41.060Z,8.27
2022-10-04T20:06:10.541Z,8.25
2022-10-04T20:09:01.918Z,8.22
2022-10-04T20:11:49.663Z,8.20
2022-10-04T20:14:48.322Z,8.18
2022-10-04T20:17:33.075Z,8.19
2022-10-04T20:20:02.086Z,8.16
2022-10-04T20:22:32.402Z,8.17
2022-10-04T20:25:01.412Z,8.15
2022-10-04T20:28:01.655Z,8.11
2022-10-04T20:30:53.182Z,8.11
2022-10-04T20:33:47.727Z,8.11
2022-10-04T20:36:51.090Z,8.08
2022-10-04T20:39:59.015Z,8.05
2022-10-04T20:42:45.322Z,8.01
2022-10-04T20:45:30.525Z,8.00
2022-10-04T20:48:01.167Z,7.98
2022-10-04T20:50:38.997Z,7.95
2022-10-04T20:53:15.337Z,7.96
2022-10-04T20:55:45.635Z,7.95
2022-10-04T20:58:27.482Z,7.90
2022-10-04T21:00:58.235Z,7.87
2022-10-04T21:03:28.423Z,7.85
2022-10-04T21:06:02.373Z,7.85
2022-10-04T21:08:31.702Z,7.89
2022-10-04T21:11:08.517Z,7.87
2022-10-04T21:13:44.032Z,7.83
2022-10-04T21:16:13.212Z,7.82
2022-10-04T21:18:43.539Z,7.79
2022-10-04T21:21:14.731Z,7.73
2022-10-04T21:23:43.406Z,7.70
2022-10-04T21:26:22.004Z,7.68
2022-10-04T21:28:54.174Z,7.66
2022-10-04T21:31:23.049Z,7.67
2022-10-04T21:33:53.360Z,7.64
2022-10-04T21:36:22.096Z,7.62
2022-10-04T21:38:51.034Z,7.56
2022-10-04T21:41:19.717Z,7.58
2022-10-04T21:43:48.047Z,7.56
2022-10-04T21:46:20.368Z,7.55
2022-10-04T21:48:49.634Z,7.53
2022-10-04T21:51:19.729Z,7.48
2022-10-04T21:53:48.571Z,7.47
2022-10-04T21:56:17.547Z,7.43
2022-10-04T21:58:46.023Z,7.38
2022-10-04T22:01:14.801Z,7.35
2022-10-04T22:03:43.683Z,7.38
2022-10-04T22:06:12.406Z,7.39
2022-10-04T22:08:43.095Z,7.36
2022-10-04T22:11:11.927Z,7.37
2022-10-04T22:13:40.491Z,7.36
2022-10-04T22:16:09.648Z,7.39
2022-10-04T22:18:38.599Z,7.39
2022-10-04T22:21:08.633Z,7.37
2022-10-04T22:23:39.454Z,7.36
2022-10-04T22:26:13.312Z,7.36
2022-10-04T22:28:44.705Z,7.35
2022-10-04T22:31:14.172Z,7.34
2022-10-04T22:33:44.087Z,7.33
2022-10-04T22:36:16.210Z,7.38
2022-10-04T22:38:48.994Z,7.41
2022-10-04T22:41:20.751Z,7.45
2022-10-04T22:43:50.695Z,7.46
2022-10-04T22:46:21.205Z,7.50
2022-10-04T22:48:50.565Z,7.56
2022-10-04T22:51:19.370Z,7.61
2022-10-04T22:53:49.322Z,7.65
2022-10-04T22:56:19.445Z,7.69
2022-10-04T22:58:47.754Z,7.72
2022-10-04T23:01:18.518Z,7.73
2022-10-04T23:03:48.816Z,7.75
2022-10-04T23:06:17.762Z,7.76
2022-10-04T23:08:46.751Z,7.74
2022-10-04T23:11:15.550Z,7.73
2022-10-04T23:13:45.334Z,7.72
2022-10-04T23:16:15.876Z,7.73
2022-10-04T23:18:44.630Z,7.74
2022-10-04T23:21:23.747Z,7.76
2022-10-04T23:23:53.957Z,7.77
2022-10-04T23:26:24.665Z,7.77
2022-10-04T23:28:54.300Z,7.76
2022-10-04T23:31:24.872Z,7.77
2022-10-04T23:33:55.221Z,7.79
2022-10-04T23:36:24.586Z,7.80
2022-10-04T23:38:56.073Z,7.83
2022-10-04T23:41:24.736Z,7.85
2022-10-04T23:43:54.425Z,8.04
2022-10-04T23:46:24.895Z,7.96
2022-10-04T23:48:53.816Z,7.97
2022-10-04T23:51:22.918Z,7.99
2022-10-04T23:53:51.562Z,8.01
2022-10-04T23:56:22.187Z,8.04
2022-10-04T23:58:50.977Z,8.08
